KNPA/NPA METAR and TAF weather

Enter ICAO airport designator
Station Type Date Time Source
KNPA METAR 2020/08/14 16:15 UTC NOAA

KNPA 141615Z 33004KT 10SM SCT028 SCT060 BKN120 BKN250 29/24 A2998 RMK AO2 TSE15 CB DSNT NE AND S T1 SET P0002 T02940239 $


Station Type Date Time Source
KNPA Decoded METAR 2020/08/14 16:15 UTC NOAA

Pensacola, Naval Air Station, FL, United States (KNPA) 30-21-22N 087-19-24W 10M
Aug 14, 2020 - 12:15 PM EDT / 2020.08.14 1615 UTC
Wind: from the NNW (330 degrees) at 5 MPH (4 KT):0
Visibility: 10 mile(s):0
Sky conditions: mostly cloudy
Weather: Cumulonimbus clouds observed
Precipitation last hour: 0.02 inches
Temperature: 84.9 F (29.4 C)
Dew Point: 75.0 F (23.9 C)
Relative Humidity: 72%
Pressure (altimeter): 29.98 in. Hg (1015 hPa)
ob: KNPA 141615Z 33004KT 10SM SCT028 SCT060 BKN120 BKN250 29/24 A2998 RMK AO2 TSE15 CB DSNT NE AND S T1 SET P0002 T02940239
cycle: 16

Station Type Date Time Source
KNPA TAF 2020/08/14 15:54 UTC NOAA

TAF KNPA 1415/1515 19006KT 9999 VCTS SCT025CB SCT120 BKN250 QNH2992INS
TEMPO 1415/1419 VRB15G25KT 4800 TSRA FEW012 BKN025CB BKN080
FM141900 22010KT 9999 VCTS SCT035CB SCT120 BKN250 QNH2988INS
TEMPO 1423/1502 VRB15G25KT 4800 TSRA FEW015 BKN025CB OVC080
FM150200 24005KT 9999 VCSH SCT030 SCT050 BKN120 OVC250 QNH2990INS
TEMPO 1502/1506 8000 SHRA BKN050
FM150800 VRB05KT 9999 VCTS SCT025CB BKN070 BKN120 OVC250 QNH2988INS LAST NO
AMDS AFT 1423 NEXT 1507 T33/1418Z T25/1511Z FN20053

Example: see airport list